Time;durP1;ratioP1;P1;durP2;ratioP2;P2;SDS_P1;SDS_P2;PMS_P1;PMS_P2;Temp;Humidity;BMP_temperature;BMP_pressure;BME280_temperature;BME280_humidity;BME280_pressure;Samples;Min_cycle;Max_cycle;Signal;HPM_P1;HPM_P2
2023/12/10 00:00:59;;;;;;;104.68;36.28;;;3.30;99.90;;;;;;4996937;28;20069;-50
2023/12/10 00:03:25;;;;;;;95.13;36.97;;;3.50;99.90;;;;;;5016132;28;20068;-53
2023/12/10 00:05:51;;;;;;;113.63;36.05;;;3.40;99.90;;;;;;5034905;28;20412;-54
2023/12/10 00:08:17;;;;;;;114.78;36.42;;;3.50;99.90;;;;;;5034909;28;20470;-51
2023/12/10 00:10:42;;;;;;;99.55;35.60;;;3.50;99.90;;;;;;5035105;28;20108;-54
2023/12/10 00:13:11;;;;;;;86.00;32.40;;;3.60;99.90;;;;;;5035081;28;20559;-51
2023/12/10 00:15:37;;;;;;;80.93;33.90;;;3.20;99.90;;;;;;5034704;28;20056;-53
2023/12/10 00:18:04;;;;;;;75.57;34.47;;;3.20;99.90;;;;;;5034221;28;20038;-51
2023/12/10 00:20:30;;;;;;;81.00;34.70;;;3.10;99.90;;;;;;5012131;28;20034;-53
2023/12/10 00:22:56;;;;;;;80.10;34.13;;;3.10;99.90;;;;;;5012376;28;20508;-54
2023/12/10 00:25:22;;;;;;;89.05;34.00;;;3.00;99.90;;;;;;5012444;28;20041;-52
2023/12/10 00:27:47;;;;;;;79.97;33.83;;;3.00;99.90;;;;;;5012311;28;20033;-51
2023/12/10 00:30:14;;;;;;;75.57;33.95;;;3.00;99.90;;;;;;5012363;28;20030;-52
2023/12/10 00:32:40;;;;;;;74.18;33.95;;;2.90;99.90;;;;;;5011925;28;20136;-50
2023/12/10 00:35:06;;;;;;;80.18;32.75;;;3.10;99.90;;;;;;5012116;28;20156;-53
2023/12/10 00:37:32;;;;;;;73.65;32.97;;;3.30;99.90;;;;;;5011530;28;20033;-54
2023/12/10 00:39:59;;;;;;;68.97;33.03;;;3.40;99.90;;;;;;5012036;28;20030;-50
2023/12/10 00:42:25;;;;;;;90.07;33.08;;;3.40;99.90;;;;;;5007396;28;20389;-55
2023/12/10 00:44:50;;;;;;;77.70;33.85;;;3.40;99.90;;;;;;5031656;28;20041;-53
2023/12/10 00:47:17;;;;;;;95.88;31.65;;;;;;;;;;5031860;28;20038;-51
2023/12/10 00:49:43;;;;;;;78.28;31.67;;;3.00;99.90;;;;;;5031765;28;20037;-53
2023/12/10 00:52:08;;;;;;;70.20;31.05;;;2.60;99.90;;;;;;5031555;28;20445;-54
2023/12/10 00:54:34;;;;;;;37.50;16.15;;;2.50;99.90;;;;;;5031798;28;20037;-55
2023/12/10 00:57:00;;;;;;;68.03;29.33;;;2.10;99.90;;;;;;5017529;28;20506;-55
2023/12/10 00:59:26;;;;;;;50.60;21.63;;;2.10;99.90;;;;;;5053723;28;20107;-54
2023/12/10 01:01:52;;;;;;;42.15;20.35;;;2.00;99.90;;;;;;5051460;28;20033;-52
2023/12/10 01:04:18;;;;;;;44.75;20.30;;;;;;;;;;5053748;28;20025;-55
2023/12/10 01:06:46;;;;;;;56.08;22.48;;;1.50;99.90;;;;;;5053434;28;20459;-53
2023/12/10 01:09:15;;;;;;;53.33;22.20;;;1.70;99.90;;;;;;5054059;28;20031;-50
2023/12/10 01:11:41;;;;;;;74.45;30.65;;;1.80;99.90;;;;;;5053673;28;20467;-54
2023/12/10 01:14:07;;;;;;;79.30;30.50;;;2.00;99.90;;;;;;5053444;28;20094;-51
2023/12/10 01:16:33;;;;;;;68.35;29.35;;;2.10;99.90;;;;;;5052286;28;20036;-52
2023/12/10 01:18:58;;;;;;;73.97;31.75;;;2.30;99.90;;;;;;5053677;28;20108;-52
2023/12/10 01:21:24;;;;;;;71.63;30.25;;;2.40;99.90;;;;;;5051281;28;20060;-53
2023/12/10 01:23:54;;;;;;;72.63;29.45;;;;;;;;;;5051045;28;20369;-54
2023/12/10 01:26:20;;;;;;;81.63;31.52;;;;;;;;;;5053656;28;20060;-52
2023/12/10 01:28:46;;;;;;;76.63;28.58;;;2.60;99.90;;;;;;5053212;28;20094;-53
2023/12/10 01:31:11;;;;;;;92.22;34.78;;;2.60;99.90;;;;;;5052926;28;20029;-55
2023/12/10 01:33:37;;;;;;;83.45;31.38;;;2.60;99.90;;;;;;5034251;28;20045;-53
2023/12/10 01:36:03;;;;;;;79.05;34.95;;;;;;;;;;5053242;28;20029;-51
2023/12/10 01:38:29;;;;;;;75.32;32.17;;;3.30;99.90;;;;;;5053170;28;20032;-52
2023/12/10 01:40:55;;;;;;;84.68;33.45;;;3.30;99.90;;;;;;5052922;28;20390;-51
2023/12/10 01:43:21;;;;;;;82.40;34.17;;;;;;;;;;5053217;28;20112;-54
2023/12/10 01:45:50;;;;;;;68.53;28.33;;;3.70;99.90;;;;;;5053033;28;20029;-54
2023/12/10 01:48:20;;;;;;;76.75;32.67;;;3.10;99.90;;;;;;5052753;28;20056;-55
2023/12/10 01:50:46;;;;;;;81.97;37.95;;;2.80;99.90;;;;;;5033439;28;20479;-55
2023/12/10 01:53:13;;;;;;;50.58;19.88;;;3.00;99.90;;;;;;5052658;28;20033;-54
2023/12/10 01:55:40;;;;;;;70.03;28.13;;;2.80;99.90;;;;;;5052740;28;20104;-55
2023/12/10 01:58:05;;;;;;;77.13;28.75;;;2.40;99.90;;;;;;5052608;28;20020;-52
2023/12/10 02:00:32;;;;;;;90.40;28.50;;;2.50;99.90;;;;;;5033954;28;20630;-55
2023/12/10 02:03:00;;;;;;;86.65;28.02;;;2.60;99.90;;;;;;5052461;28;20029;-52
2023/12/10 02:05:26;;;;;;;81.03;31.45;;;;;;;;;;5052783;28;20177;-53
2023/12/10 02:07:53;;;;;;;89.95;33.90;;;2.80;99.90;;;;;;5052485;28;20063;-53
2023/12/10 02:10:19;;;;;;;82.25;29.02;;;2.90;99.90;;;;;;5052761;28;20044;-54
2023/12/10 02:12:46;;;;;;;88.78;29.92;;;2.90;99.90;;;;;;5033666;28;20033;-54
2023/12/10 02:15:16;;;;;;;83.30;31.23;;;2.60;99.90;;;;;;5052343;28;20484;-52
2023/12/10 02:17:42;;;;;;;84.60;30.77;;;2.70;99.90;;;;;;5033690;28;20029;-56
2023/12/10 02:20:14;;;;;;;76.60;31.25;;;3.10;99.90;;;;;;5033336;28;20052;-55
2023/12/10 02:23:11;;;;;;;98.03;34.78;;;3.30;99.90;;;;;;5018943;28;20090;-54
2023/12/10 02:25:39;;;;;;;102.68;31.75;;;3.60;99.90;;;;;;5052360;28;20029;-53
2023/12/10 02:28:07;;;;;;;87.38;28.30;;;3.90;99.90;;;;;;5052146;28;20051;-53
2023/12/10 02:30:34;;;;;;;116.10;31.48;;;4.00;99.90;;;;;;5033386;28;20064;-54
2023/12/10 02:33:00;;;;;;;106.47;29.10;;;4.10;99.90;;;;;;5052013;28;20511;-52
2023/12/10 02:35:26;;;;;;;79.13;30.25;;;3.80;99.90;;;;;;5052109;28;20024;-52
2023/12/10 02:37:52;;;;;;;131.45;31.80;;;3.60;99.90;;;;;;5033163;28;20036;-52
2023/12/10 02:40:18;;;;;;;77.43;32.22;;;3.50;99.90;;;;;;5052266;28;20032;-56
2023/12/10 02:42:45;;;;;;;124.47;30.88;;;3.50;99.90;;;;;;5051959;28;20021;-52
2023/12/10 02:45:12;;;;;;;92.53;33.63;;;3.30;99.90;;;;;;5052157;28;20044;-50
2023/12/10 02:47:37;;;;;;;113.40;32.30;;;3.40;99.90;;;;;;5052291;28;20041;-55
2023/12/10 02:50:03;;;;;;;101.30;32.47;;;3.60;99.90;;;;;;5051990;28;20083;-51
2023/12/10 02:52:29;;;;;;;91.55;33.85;;;3.80;99.90;;;;;;5000097;28;20128;-53
2023/12/10 02:54:55;;;;;;;118.30;31.55;;;4.00;99.90;;;;;;5051814;28;20059;-51
2023/12/10 02:57:21;;;;;;;138.82;28.48;;;3.80;99.90;;;;;;5051604;28;20025;-53
2023/12/10 02:59:47;;;;;;;143.55;33.42;;;3.20;99.90;;;;;;5052052;28;20033;-51
2023/12/10 03:02:12;;;;;;;145.13;33.58;;;3.30;99.90;;;;;;5051774;28;20342;-54
2023/12/10 03:04:38;;;;;;;93.07;32.58;;;3.60;99.90;;;;;;5051784;28;20178;-51
2023/12/10 03:07:04;;;;;;;95.15;31.48;;;3.80;99.90;;;;;;5052150;28;20025;-52
2023/12/10 03:09:30;;;;;;;122.78;28.88;;;3.70;99.90;;;;;;5032986;28;20041;-52
2023/12/10 03:11:55;;;;;;;210.38;33.33;;;3.40;99.90;;;;;;5032842;28;20477;-52
2023/12/10 03:14:21;;;;;;;89.47;33.20;;;3.20;99.90;;;;;;5051465;28;20175;-55
2023/12/10 03:16:47;;;;;;;135.93;32.85;;;3.30;99.90;;;;;;5051591;28;20024;-50
2023/12/10 03:19:13;;;;;;;151.30;30.40;;;3.60;99.90;;;;;;5051474;28;20040;-51
2023/12/10 03:21:38;;;;;;;163.68;33.28;;;3.40;99.90;;;;;;5051563;28;20025;-55
2023/12/10 03:24:04;;;;;;;106.57;33.25;;;3.30;99.90;;;;;;5051523;28;20039;-52
2023/12/10 03:26:30;;;;;;;93.82;31.98;;;3.50;99.90;;;;;;5051525;28;20033;-53
2023/12/10 03:28:56;;;;;;;95.60;31.33;;;3.60;99.90;;;;;;5051658;28;20395;-53
2023/12/10 03:31:21;;;;;;;101.82;30.85;;;3.60;99.90;;;;;;5032479;28;20103;-53
2023/12/10 03:33:50;;;;;;;88.18;22.63;;;3.70;99.90;;;;;;5051671;28;20067;-53
2023/12/10 03:36:16;;;;;;;102.45;28.75;;;2.90;99.90;;;;;;5051575;28;20032;-51
2023/12/10 03:38:41;;;;;;;88.60;24.67;;;2.70;99.90;;;;;;5032806;28;20047;-50
2023/12/10 03:41:07;;;;;;;72.40;22.42;;;2.60;99.90;;;;;;5051537;28;20025;-52
2023/12/10 03:43:33;;;;;;;115.65;27.98;;;2.80;99.90;;;;;;5051575;28;20025;-49
2023/12/10 03:45:58;;;;;;;97.20;31.77;;;2.60;99.90;;;;;;5051269;28;20036;-55
2023/12/10 03:48:24;;;;;;;88.07;21.83;;;2.90;99.90;;;;;;5049987;28;20036;-53
2023/12/10 03:50:51;;;;;;;190.20;35.05;;;2.80;99.90;;;;;;5051226;28;20380;-50
2023/12/10 03:53:17;;;;;;;99.38;29.00;;;3.00;99.90;;;;;;5015889;28;20057;-54
2023/12/10 03:55:43;;;;;;;137.65;30.90;;;3.00;99.90;;;;;;5051193;28;20021;-51
2023/12/10 03:58:08;;;;;;;146.93;29.33;;;2.80;99.90;;;;;;5051230;28;20044;-55
2023/12/10 04:00:34;;;;;;;122.20;31.55;;;2.80;99.90;;;;;;5051738;28;20342;-53
2023/12/10 04:03:00;;;;;;;98.47;32.25;;;2.80;99.90;;;;;;5051169;28;20078;-52
2023/12/10 04:05:26;;;;;;;194.88;31.83;;;3.10;99.90;;;;;;5051015;28;20361;-55
2023/12/10 04:07:51;;;;;;;142.00;26.50;;;2.90;99.90;;;;;;5050404;28;20032;-52
2023/12/10 04:10:17;;;;;;;101.20;29.90;;;2.80;99.90;;;;;;5051193;28;20025;-51
2023/12/10 04:12:43;;;;;;;173.45;30.80;;;2.60;99.90;;;;;;5052068;28;20041;-52
2023/12/10 04:15:10;;;;;;;182.68;33.60;;;2.50;99.90;;;;;;5054744;28;20059;-52
2023/12/10 04:17:36;;;;;;;86.93;29.92;;;2.70;99.90;;;;;;5054843;28;20083;-54
2023/12/10 04:20:02;;;;;;;193.45;30.20;;;2.80;99.90;;;;;;5019080;28;20037;-51
2023/12/10 04:22:28;;;;;;;155.10;33.38;;;2.70;99.90;;;;;;5035841;28;20040;-52
2023/12/10 04:24:53;;;;;;;113.60;27.10;;;2.70;99.90;;;;;;5054424;28;20464;-53
2023/12/10 04:27:19;;;;;;;160.63;26.85;;;2.60;99.90;;;;;;5035764;28;20048;-53
2023/12/10 04:29:45;;;;;;;129.88;26.10;;;2.30;99.90;;;;;;5035497;28;20040;-54
2023/12/10 04:32:11;;;;;;;191.48;26.38;;;2.30;99.90;;;;;;5054169;28;20128;-53
2023/12/10 04:34:37;;;;;;;133.05;27.95;;;2.00;99.90;;;;;;5018938;28;20041;-55
2023/12/10 04:37:03;;;;;;;94.40;24.05;;;;;;;;;;5054259;28;20036;-54
2023/12/10 04:39:29;;;;;;;88.50;22.40;;;1.60;99.90;;;;;;5054178;28;20032;-53
2023/12/10 04:41:54;;;;;;;100.25;27.42;;;1.50;99.90;;;;;;5054347;28;20480;-53
2023/12/10 04:44:20;;;;;;;96.65;28.23;;;1.50;99.90;;;;;;5054564;28;20021;-54
2023/12/10 04:46:46;;;;;;;99.03;24.40;;;;;;;;;;5053924;28;20033;-54
2023/12/10 04:49:12;;;;;;;96.15;24.83;;;1.70;99.90;;;;;;5035410;28;20029;-54
2023/12/10 04:51:38;;;;;;;70.65;22.83;;;;;;;;;;5035240;28;20478;-56
2023/12/10 04:54:04;;;;;;;73.93;24.50;;;1.70;99.90;;;;;;5035275;28;20119;-56
2023/12/10 04:56:30;;;;;;;51.95;17.55;;;1.80;99.90;;;;;;5018586;28;20112;-51
2023/12/10 04:58:56;;;;;;;57.35;20.75;;;1.70;99.90;;;;;;5018438;28;20040;-52
2023/12/10 05:01:22;;;;;;;35.47;13.65;;;1.40;99.90;;;;;;5054080;28;20040;-52
2023/12/10 05:03:47;;;;;;;17.30;10.38;;;1.40;99.90;;;;;;5053854;28;20029;-55
2023/12/10 05:06:13;;;;;;;94.50;25.42;;;1.20;99.90;;;;;;5053752;28;20025;-53
2023/12/10 05:08:39;;;;;;;65.20;21.85;;;1.20;99.90;;;;;;5053787;28;20025;-54
2023/12/10 05:11:05;;;;;;;96.18;28.27;;;1.50;99.90;;;;;;5054133;28;20486;-55
2023/12/10 05:13:31;;;;;;;57.72;22.48;;;1.40;99.90;;;;;;5053660;28;20389;-55
2023/12/10 05:15:57;;;;;;;86.78;27.60;;;1.50;99.90;;;;;;5034619;28;20086;-56
2023/12/10 05:18:23;;;;;;;70.93;26.40;;;1.70;99.90;;;;;;5001705;28;20044;-53
2023/12/10 05:20:49;;;;;;;89.10;31.02;;;1.70;99.90;;;;;;5053875;28;20032;-55
2023/12/10 05:23:15;;;;;;;113.38;46.28;;;1.70;99.90;;;;;;5053395;28;20029;-55
2023/12/10 05:25:40;;;;;;;75.35;27.95;;;1.50;99.90;;;;;;5017986;28;20037;-51
2023/12/10 05:28:06;;;;;;;27.13;14.23;;;1.60;99.90;;;;;;5034627;28;20033;-54
2023/12/10 05:30:32;;;;;;;54.85;17.55;;;1.30;99.90;;;;;;5053296;28;20082;-54
2023/12/10 05:32:57;;;;;;;66.53;23.50;;;1.20;99.90;;;;;;5052915;28;20048;-53
2023/12/10 05:35:23;;;;;;;71.68;30.95;;;1.20;99.90;;;;;;5053607;28;20480;-53
2023/12/10 05:37:49;;;;;;;73.90;34.60;;;1.20;99.90;;;;;;5034316;28;20041;-50
2023/12/10 05:40:15;;;;;;;102.70;44.35;;;1.30;99.90;;;;;;5017598;28;20040;-50
2023/12/10 05:42:41;;;;;;;122.72;61.88;;;1.40;99.90;;;;;;5053019;28;20025;-54
2023/12/10 05:45:07;;;;;;;99.32;52.22;;;1.40;99.90;;;;;;5053407;28;20021;-52
2023/12/10 05:47:33;;;;;;;87.55;45.50;;;1.50;99.90;;;;;;5034338;28;20040;-52
2023/12/10 05:49:59;;;;;;;86.07;42.95;;;1.40;99.90;;;;;;5053095;28;20483;-53
2023/12/10 05:52:24;;;;;;;74.35;35.22;;;1.50;99.90;;;;;;5052808;28;20112;-54
2023/12/10 05:54:51;;;;;;;97.95;54.03;;;1.90;99.90;;;;;;5017291;28;20481;-51
2023/12/10 05:57:17;;;;;;;71.05;34.70;;;2.10;99.90;;;;;;5052806;28;20385;-52
2023/12/10 05:59:43;;;;;;;66.65;34.38;;;2.60;99.90;;;;;;5053146;28;20099;-51
2023/12/10 06:02:09;;;;;;;72.95;39.30;;;2.30;99.90;;;;;;5052749;28;20440;-55
2023/12/10 06:04:34;;;;;;;81.60;54.00;;;2.40;99.90;;;;;;5033856;28;20029;-52
2023/12/10 06:07:00;;;;;;;57.63;30.15;;;2.50;99.90;;;;;;5034717;28;20029;-51
2023/12/10 06:09:26;;;;;;;52.70;28.15;;;2.50;99.90;;;;;;5052625;28;20033;-56
2023/12/10 06:11:53;;;;;;;48.10;25.23;;;2.60;99.90;;;;;;5033661;28;20029;-51
2023/12/10 06:14:19;;;;;;;51.17;26.35;;;2.60;99.90;;;;;;5052416;28;20041;-55
2023/12/10 06:16:45;;;;;;;52.30;26.30;;;2.80;99.90;;;;;;5052556;28;20029;-52
2023/12/10 06:19:10;;;;;;;46.72;25.27;;;2.60;99.90;;;;;;5052765;28;20048;-52
2023/12/10 06:21:37;;;;;;;52.20;27.33;;;2.60;99.90;;;;;;5033573;28;20063;-51
2023/12/10 06:24:04;;;;;;;52.92;27.27;;;2.50;99.90;;;;;;5052261;28;20036;-51
2023/12/10 06:26:30;;;;;;;51.95;25.02;;;;;;;;;;5052587;28;20040;-53
2023/12/10 06:28:56;;;;;;;53.70;26.40;;;3.10;99.90;;;;;;5052314;28;20096;-52
2023/12/10 06:31:22;;;;;;;53.10;27.38;;;2.70;99.90;;;;;;5052039;28;20135;-52
2023/12/10 06:33:50;;;;;;;52.78;29.67;;;;;;;;;;5016860;28;20079;-50
2023/12/10 06:36:15;;;;;;;52.70;27.67;;;3.20;99.90;;;;;;5052162;28;20040;-56
2023/12/10 06:38:41;;;;;;;53.42;28.13;;;;;;;;;;5033276;28;20397;-54
2023/12/10 06:41:07;;;;;;;53.95;26.30;;;;;;;;;;5051999;28;20440;-55
2023/12/10 06:43:33;;;;;;;52.95;28.52;;;2.80;99.90;;;;;;5052172;28;20411;-52
2023/12/10 06:45:59;;;;;;;56.83;24.77;;;2.60;99.90;;;;;;5051699;28;20039;-53
2023/12/10 06:48:25;;;;;;;64.75;29.63;;;2.40;99.90;;;;;;5033115;28;20512;-52
2023/12/10 06:50:52;;;;;;;62.30;29.27;;;2.50;99.90;;;;;;5016549;28;20099;-51
2023/12/10 06:53:17;;;;;;;53.00;29.88;;;2.70;99.90;;;;;;5051875;28;20033;-54
2023/12/10 06:55:44;;;;;;;57.00;28.25;;;3.20;99.90;;;;;;5033207;28;20103;-52
2023/12/10 06:58:10;;;;;;;56.75;28.42;;;3.40;99.90;;;;;;5051639;28;20029;-53
2023/12/10 07:00:36;;;;;;;57.65;29.25;;;;;;;;;;5032858;28;20041;-51
2023/12/10 07:03:02;;;;;;;58.30;31.35;;;3.50;99.90;;;;;;5051826;28;20025;-54
2023/12/10 07:05:28;;;;;;;61.10;29.92;;;3.80;99.90;;;;;;5051836;28;20043;-53
2023/12/10 07:07:53;;;;;;;57.92;28.77;;;3.90;99.90;;;;;;5032856;28;20401;-53
2023/12/10 07:10:20;;;;;;;59.50;28.60;;;;;;;;;;5052111;28;20043;-53
2023/12/10 07:12:46;;;;;;;63.53;30.88;;;;;;;;;;5051448;28;20033;-55
2023/12/10 07:15:12;;;;;;;62.67;30.65;;;4.20;99.90;;;;;;5051504;28;20056;-54
2023/12/10 07:17:38;;;;;;;67.45;31.70;;;;;;;;;;5051638;28;20071;-52
2023/12/10 07:20:04;;;;;;;65.22;32.13;;;4.30;99.90;;;;;;5051471;28;20477;-54
2023/12/10 07:22:31;;;;;;;83.30;43.90;;;4.10;99.90;;;;;;5051652;28;20028;-50
2023/12/10 07:24:58;;;;;;;82.97;42.40;;;4.10;99.90;;;;;;5051778;28;20108;-52
2023/12/10 07:27:24;;;;;;;75.85;40.40;;;4.20;99.90;;;;;;5051797;28;20033;-50
2023/12/10 07:29:50;;;;;;;51.25;28.45;;;4.00;99.90;;;;;;5051969;28;20037;-53
2023/12/10 07:32:15;;;;;;;48.88;25.63;;;3.90;99.90;;;;;;5051202;28;20057;-54
2023/12/10 07:34:41;;;;;;;51.88;28.35;;;3.90;99.90;;;;;;5051488;28;20032;-55
2023/12/10 07:37:07;;;;;;;51.10;28.00;;;;;;;;;;5051534;28;20025;-50
2023/12/10 07:39:33;;;;;;;49.78;26.95;;;;;;;;;;5051615;28;20032;-52
2023/12/10 07:42:01;;;;;;;52.05;28.27;;;;;;;;;;5051291;28;20509;-51
2023/12/10 07:44:28;;;;;;;51.20;28.35;;;;;;;;;;5051220;28;20041;-52
2023/12/10 07:46:55;;;;;;;52.95;32.08;;;;;;;;;;5051343;28;20455;-53
2023/12/10 07:49:20;;;;;;;61.97;36.70;;;4.30;99.90;;;;;;5055043;28;20036;-52
2023/12/10 07:51:46;;;;;;;46.47;27.77;;;4.40;99.90;;;;;;5055194;28;20086;-55
2023/12/10 07:54:12;;;;;;;49.90;29.20;;;4.30;99.90;;;;;;5054951;28;20037;-52
2023/12/10 07:56:38;;;;;;;46.50;28.88;;;4.20;99.90;;;;;;5055095;28;20137;-51
2023/12/10 07:59:03;;;;;;;48.15;28.35;;;4.50;99.90;;;;;;5055437;28;20570;-55
2023/12/10 08:01:29;;;;;;;43.47;28.15;;;;;;;;;;5055321;28;20044;-55
2023/12/10 08:03:56;;;;;;;47.30;29.92;;;;;;;;;;5054926;28;20033;-55
2023/12/10 08:06:21;;;;;;;51.35;31.13;;;4.80;99.90;;;;;;5055010;28;20033;-55
2023/12/10 08:08:47;;;;;;;46.95;28.80;;;4.90;99.90;;;;;;5054875;28;20027;-52
2023/12/10 08:11:13;;;;;;;46.45;30.58;;;5.00;99.90;;;;;;5054941;28;20443;-54
2023/12/10 08:13:39;;;;;;;48.05;29.45;;;5.00;99.90;;;;;;5054509;28;20040;-53
2023/12/10 08:16:05;;;;;;;39.35;24.42;;;5.20;99.90;;;;;;5035824;28;20040;-54
2023/12/10 08:18:31;;;;;;;38.22;24.08;;;5.20;99.90;;;;;;5055035;28;20037;-54
2023/12/10 08:20:57;;;;;;;53.67;27.17;;;5.30;99.90;;;;;;5035715;28;20041;-52
2023/12/10 08:23:22;;;;;;;46.47;28.52;;;5.50;99.90;;;;;;5035655;28;20043;-51
2023/12/10 08:25:48;;;;;;;42.78;26.55;;;5.60;99.90;;;;;;5054528;28;20112;-55
2023/12/10 08:28:14;;;;;;;44.38;28.08;;;5.50;99.90;;;;;;5054876;28;20440;-51
2023/12/10 08:30:40;;;;;;;42.38;25.60;;;5.40;99.90;;;;;;5019077;28;20040;-51
2023/12/10 08:33:06;;;;;;;46.47;27.10;;;5.10;99.90;;;;;;5054119;28;20118;-53
2023/12/10 08:35:32;;;;;;;46.67;26.83;;;5.20;99.90;;;;;;5054744;28;20456;-56
2023/12/10 08:37:57;;;;;;;44.90;27.33;;;4.70;99.90;;;;;;5044351;28;20026;-52
2023/12/10 08:40:23;;;;;;;51.63;30.52;;;4.70;99.90;;;;;;5048303;28;20358;-53
2023/12/10 08:42:49;;;;;;;49.50;30.98;;;4.70;99.90;;;;;;4992053;28;20046;-51
2023/12/10 08:45:15;;;;;;;48.92;28.48;;;;;;;;;;4992548;28;20046;-52
2023/12/10 08:47:41;;;;;;;47.90;29.20;;;4.90;99.90;;;;;;4992244;28;20129;-51
2023/12/10 08:50:07;;;;;;;50.70;32.72;;;5.00;99.90;;;;;;4991902;28;20712;-53
2023/12/10 08:52:33;;;;;;;39.63;25.67;;;;;;;;;;4959523;28;20149;-53
2023/12/10 08:55:01;;;;;;;50.70;31.63;;;;;;;;;;4992281;28;20545;-55
2023/12/10 08:57:26;;;;;;;56.92;32.60;;;5.70;99.90;;;;;;4992184;28;20046;-52
2023/12/10 08:59:52;;;;;;;48.30;28.15;;;5.70;99.90;;;;;;4991218;28;20092;-53
2023/12/10 09:02:19;;;;;;;43.05;25.95;;;5.90;99.90;;;;;;4992145;28;20038;-52
2023/12/10 09:04:46;;;;;;;44.72;27.58;;;6.10;99.90;;;;;;4991488;28;20395;-56
2023/12/10 09:07:12;;;;;;;67.55;42.75;;;5.80;99.90;;;;;;4991664;28;20069;-51
2023/12/10 09:09:37;;;;;;;47.00;27.85;;;5.70;99.90;;;;;;4991945;28;20073;-54
2023/12/10 09:12:03;;;;;;;41.85;25.83;;;5.70;99.90;;;;;;4991990;28;20096;-54
2023/12/10 09:14:29;;;;;;;46.13;27.65;;;;;;;;;;5039956;28;20059;-56
2023/12/10 09:16:56;;;;;;;40.67;25.23;;;5.70;99.90;;;;;;5053754;28;20037;-50
2023/12/10 09:19:23;;;;;;;47.78;29.70;;;5.30;99.90;;;;;;5042949;28;20064;-50
2023/12/10 09:21:49;;;;;;;51.10;30.73;;;;;;;;;;5042302;28;20033;-51
2023/12/10 09:24:15;;;;;;;48.65;29.73;;;5.40;99.90;;;;;;5043096;28;20112;-51
2023/12/10 09:26:40;;;;;;;47.72;29.20;;;5.50;99.90;;;;;;5041971;28;20130;-51
2023/12/10 09:29:06;;;;;;;44.53;27.98;;;5.40;99.90;;;;;;5041113;28;20488;-55
2023/12/10 09:31:32;;;;;;;42.35;26.83;;;5.50;99.90;;;;;;5042600;28;20072;-53
2023/12/10 09:33:58;;;;;;;44.58;26.65;;;5.40;99.90;;;;;;5041786;28;20389;-55
2023/12/10 09:36:23;;;;;;;48.97;29.25;;;5.40;99.90;;;;;;5038447;28;20021;-56
2023/12/10 09:38:49;;;;;;;46.97;27.17;;;5.30;99.90;;;;;;5040991;28;20546;-54
2023/12/10 09:41:15;;;;;;;47.60;27.85;;;;;;;;;;5050115;28;20199;-54
2023/12/10 09:43:41;;;;;;;45.45;26.65;;;5.40;99.90;;;;;;5047268;28;20022;-52
2023/12/10 09:46:08;;;;;;;50.08;27.48;;;5.00;99.90;;;;;;5046613;28;20029;-53
2023/12/10 09:48:36;;;;;;;53.42;31.98;;;5.10;99.90;;;;;;5038217;28;20483;-54
2023/12/10 09:51:02;;;;;;;59.15;34.60;;;;;;;;;;5016174;28;20122;-54
2023/12/10 09:53:29;;;;;;;54.53;32.45;;;;;;;;;;5029147;28;20068;-53
2023/12/10 09:55:54;;;;;;;58.90;35.15;;;5.00;99.90;;;;;;5049692;28;20392;-51
2023/12/10 09:58:20;;;;;;;58.47;32.95;;;5.00;99.90;;;;;;5053084;28;20033;-53
2023/12/10 10:00:46;;;;;;;56.08;34.40;;;5.10;99.90;;;;;;5052579;28;20128;-51
2023/12/10 10:03:12;;;;;;;53.53;33.85;;;5.40;99.90;;;;;;5052823;28;20507;-53
2023/12/10 10:05:38;;;;;;;55.33;32.78;;;5.40;99.90;;;;;;5052574;28;20025;-53
2023/12/10 10:08:03;;;;;;;57.75;34.13;;;5.50;99.90;;;;;;5052566;28;20048;-53
2023/12/10 10:10:29;;;;;;;51.83;31.77;;;5.70;99.90;;;;;;5051897;28;20032;-54
2023/12/10 10:12:56;;;;;;;57.35;35.33;;;5.60;99.90;;;;;;5052421;28;20025;-52
2023/12/10 10:15:29;;;;;;;181.90;93.45;;;5.70;99.90;;;;;;5033710;28;20110;-53
2023/12/10 10:17:56;;;;;;;69.10;41.78;;;5.70;99.90;;;;;;5052552;28;20027;-54
2023/12/10 10:20:23;;;;;;;82.60;47.67;;;5.90;99.90;;;;;;5050149;28;20039;-55
2023/12/10 10:22:49;;;;;;;66.45;36.95;;;6.10;99.90;;;;;;5052264;28;20748;-52
2023/12/10 10:25:15;;;;;;;67.60;39.55;;;6.20;99.90;;;;;;5033678;28;20439;-55
2023/12/10 10:27:41;;;;;;;207.82;107.95;;;6.30;99.90;;;;;;5045264;28;20087;-53
2023/12/10 10:30:07;;;;;;;77.07;48.20;;;6.20;99.90;;;;;;5032240;28;20037;-51
2023/12/10 10:32:33;;;;;;;117.28;64.50;;;6.20;99.90;;;;;;5032126;28;20057;-53
2023/12/10 10:35:03;;;;;;;246.32;125.82;;;6.30;99.90;;;;;;5032580;28;20037;-54
2023/12/10 10:37:28;;;;;;;189.90;102.53;;;6.50;99.90;;;;;;4990373;28;20100;-54
2023/12/10 10:39:55;;;;;;;83.82;51.65;;;6.50;99.90;;;;;;4957673;28;20042;-51
2023/12/10 10:42:20;;;;;;;80.68;48.70;;;6.60;99.90;;;;;;4974181;28;20457;-54
2023/12/10 10:44:46;;;;;;;102.68;59.80;;;6.50;99.90;;;;;;4974067;28;20113;-53
2023/12/10 10:47:12;;;;;;;131.32;77.85;;;6.20;99.90;;;;;;4998980;28;20041;-53
2023/12/10 10:49:45;;;;;;;90.60;55.47;;;6.30;99.90;;;;;;5009469;28;20030;-54
2023/12/10 10:52:22;;;;;;;111.47;66.88;;;6.20;99.90;;;;;;5009752;28;20418;-52
2023/12/10 10:54:49;;;;;;;87.70;54.55;;;6.20;99.90;;;;;;5009795;28;20040;-53
2023/12/10 10:57:31;;;;;;;95.05;60.30;;;;;;;;;;4976752;28;20493;-53
2023/12/10 10:59:57;;;;;;;77.72;50.05;;;;;;;;;;5007651;28;20022;-52
2023/12/10 11:02:24;;;;;;;69.97;45.33;;;;;;;;;;5008796;28;20037;-54
2023/12/10 11:04:51;;;;;;;74.88;45.90;;;5.70;99.90;;;;;;4984558;28;20046;-53
2023/12/10 11:07:20;;;;;;;73.57;47.58;;;5.80;99.90;;;;;;5009062;28;20474;-51
2023/12/10 11:10:02;;;;;;;68.95;42.55;;;;;;;;;;5012953;28;20040;-52
2023/12/10 11:12:48;;;;;;;;;;;6.10;99.90;;;;;;5013605;28;20379;-54
2023/12/10 11:15:17;;;;;;;63.35;40.97;;;6.10;99.90;;;;;;5046677;28;19920;-54
2023/12/10 11:18:03;;;;;;;61.67;40.22;;;6.10;99.90;;;;;;5024872;28;20034;-54
2023/12/10 11:20:32;;;;;;;67.68;41.78;;;6.20;99.90;;;;;;5009689;28;20561;-53
2023/12/10 11:23:03;;;;;;;64.28;43.08;;;6.10;99.90;;;;;;5012964;28;20393;-53
2023/12/10 11:25:29;;;;;;;61.80;40.22;;;6.20;99.90;;;;;;5013722;28;20113;-51
2023/12/10 11:27:58;;;;;;;61.95;38.67;;;5.90;99.90;;;;;;5013266;28;20042;-52
2023/12/10 11:30:25;;;;;;;57.90;38.20;;;6.10;99.90;;;;;;5014201;28;20051;-52
2023/12/10 11:32:51;;;;;;;59.92;40.17;;;6.20;99.90;;;;;;5032869;28;20045;-52
2023/12/10 11:35:17;;;;;;;55.97;38.22;;;6.40;99.90;;;;;;5033056;28;20116;-52
2023/12/10 11:37:43;;;;;;;61.80;38.70;;;6.30;99.90;;;;;;5033156;28;20052;-50
2023/12/10 11:40:09;;;;;;;60.88;41.85;;;6.50;99.90;;;;;;5032600;28;20045;-53
2023/12/10 11:42:36;;;;;;;58.78;37.95;;;6.70;99.90;;;;;;5000057;28;20045;-51
2023/12/10 11:45:04;;;;;;;55.92;37.33;;;6.80;99.90;;;;;;4999907;28;20121;-53
2023/12/10 11:47:30;;;;;;;51.75;34.63;;;7.00;99.90;;;;;;5032778;28;20390;-52
2023/12/10 11:49:56;;;;;;;57.10;35.13;;;7.00;99.90;;;;;;5051625;28;20052;-52
2023/12/10 11:52:22;;;;;;;56.63;37.22;;;7.00;99.90;;;;;;5055150;28;20029;-54
2023/12/10 11:54:49;;;;;;;64.68;41.50;;;6.80;99.90;;;;;;5054871;28;20041;-50
2023/12/10 11:57:16;;;;;;;56.90;36.47;;;6.50;99.90;;;;;;5054149;28;20112;-55
2023/12/10 11:59:48;;;;;;;53.33;34.97;;;6.50;99.90;;;;;;5035310;28;20029;-56
2023/12/10 12:02:15;;;;;;;56.42;34.55;;;6.70;99.90;;;;;;5054049;28;20040;-53
2023/12/10 12:04:41;;;;;;;47.38;30.75;;;6.70;99.90;;;;;;5053864;28;20037;-54
2023/12/10 12:07:29;;;;;;;107.70;63.30;;;6.70;99.90;;;;;;5054138;28;20029;-50
2023/12/10 12:09:55;;;;;;;49.17;33.47;;;6.80;99.90;;;;;;5034996;28;20489;-50
2023/12/10 12:12:24;;;;;;;41.47;29.10;;;6.80;99.90;;;;;;5034939;28;20041;-55
2023/12/10 12:14:53;;;;;;;46.85;30.35;;;6.90;99.90;;;;;;5054053;28;20031;-53
2023/12/10 12:17:21;;;;;;;39.80;25.83;;;7.00;99.90;;;;;;5035746;28;20532;-54
2023/12/10 12:19:47;;;;;;;46.10;33.35;;;6.90;99.90;;;;;;5053743;28;20036;-54
2023/12/10 12:22:13;;;;;;;43.85;29.77;;;7.00;99.90;;;;;;5054039;28;20017;-55
2023/12/10 12:24:39;;;;;;;43.35;27.95;;;7.00;99.90;;;;;;5053630;28;20113;-52
2023/12/10 12:27:07;;;;;;;38.30;26.45;;;7.00;99.90;;;;;;5053609;28;20156;-52
2023/12/10 12:29:34;;;;;;;42.03;27.77;;;7.00;99.90;;;;;;5048391;28;20024;-54
2023/12/10 12:32:19;;;;;;;43.08;29.77;;;7.10;99.90;;;;;;4991272;28;20053;-54
2023/12/10 12:34:45;;;;;;;40.97;29.00;;;7.20;99.90;;;;;;4990834;28;20125;-55
2023/12/10 12:37:11;;;;;;;43.53;28.45;;;7.30;99.90;;;;;;4991647;28;20038;-50
2023/12/10 12:39:37;;;;;;;37.45;24.85;;;7.40;99.90;;;;;;5003507;28;20036;-55
2023/12/10 12:42:02;;;;;;;42.97;27.60;;;7.40;99.90;;;;;;5011077;28;20038;-50